Time;durP1;ratioP1;P1;durP2;ratioP2;P2;SDS_P1;SDS_P2;PMS_P1;PMS_P2;Temp;Humidity;BMP_temperature;BMP_pressure;BME280_temperature;BME280_humidity;BME280_pressure;Samples;Min_cycle;Max_cycle;Signal;HPM_P1;HPM_P2
2023/11/14 00:01:15;;;;;;;24.08;5.32;;;11.10;99.90;;;10.91;81.92;99199.53;5098033;28;20568;-82
2023/11/14 00:03:43;;;;;;;38.80;6.68;;;11.10;99.90;;;10.90;82.32;99205.94;5094976;28;20072;-81
2023/11/14 00:06:11;;;;;;;35.30;5.72;;;11.10;99.90;;;10.88;81.94;99211.50;5097048;28;20044;-81
2023/11/14 00:08:39;;;;;;;30.25;5.40;;;11.10;99.90;;;10.93;82.00;99200.09;5099102;28;20044;-82
2023/11/14 00:11:06;;;;;;;35.95;6.03;;;11.10;99.90;;;10.91;82.08;99194.22;5089723;28;20040;-81
2023/11/14 00:13:34;;;;;;;34.58;5.78;;;11.10;99.90;;;10.95;81.92;99214.00;5099044;28;20071;-83
2023/11/14 00:16:01;;;;;;;35.80;6.07;;;11.10;99.90;;;10.98;81.87;99226.84;5100075;28;20570;-82
2023/11/14 00:18:29;;;;;;;46.90;6.93;;;11.10;99.90;;;10.99;81.76;99217.81;5101790;28;20040;-82
2023/11/14 00:20:57;;;;;;;33.60;6.38;;;11.20;99.90;;;11.00;81.97;99198.88;5102317;28;20553;-82
2023/11/14 00:23:25;;;;;;;32.47;5.40;;;11.20;99.90;;;10.97;81.44;99214.56;5102963;28;20051;-82
2023/11/14 00:25:52;;;;;;;30.58;4.97;;;11.20;99.90;;;11.01;81.60;99199.69;5102267;28;20052;-82
2023/11/14 00:28:20;;;;;;;38.83;6.32;;;11.30;99.90;;;11.02;81.89;99206.63;5102521;28;20040;-81
2023/11/14 00:30:47;;;;;;;33.55;7.45;;;11.20;99.90;;;10.99;81.71;99221.28;5100822;28;20044;-82
2023/11/14 00:33:15;;;;;;;30.02;5.70;;;11.20;99.90;;;11.03;81.05;99222.41;5100923;28;20468;-81
2023/11/14 00:35:43;;;;;;;39.33;5.75;;;11.20;99.90;;;11.03;81.31;99214.41;5097496;28;20036;-82
2023/11/14 00:38:12;;;;;;;36.00;5.97;;;11.20;99.90;;;11.06;81.55;99215.78;5101144;28;20055;-82
2023/11/14 00:40:40;;;;;;;39.78;5.80;;;11.30;99.90;;;11.03;81.38;99210.94;5099385;28;20044;-82
2023/11/14 00:43:07;;;;;;;32.00;5.72;;;11.20;99.90;;;11.07;81.58;99212.03;5102611;28;20100;-82
2023/11/14 00:45:35;;;;;;;36.13;5.35;;;11.20;99.90;;;11.12;81.58;99213.97;5096994;28;20048;-82
2023/11/14 00:48:02;;;;;;;32.20;5.50;;;11.20;99.90;;;11.03;81.63;99217.09;5101204;28;20051;-82
2023/11/14 00:50:30;;;;;;;35.92;5.53;;;11.20;99.90;;;11.03;81.53;99216.28;5101363;28;20117;-82
2023/11/14 00:52:57;;;;;;;35.10;5.50;;;11.20;99.90;;;11.07;81.70;99215.50;5099769;28;20071;-82
2023/11/14 00:55:26;;;;;;;29.85;5.18;;;11.20;99.90;;;11.04;81.49;99208.03;5101280;28;20094;-82
2023/11/14 00:57:54;;;;;;;35.28;5.68;;;11.20;99.90;;;11.03;81.19;99206.41;5101724;28;20035;-81
2023/11/14 01:00:22;;;;;;;33.90;5.82;;;11.20;99.90;;;11.06;81.60;99210.44;5090957;28;20048;-81
2023/11/14 01:02:53;;;;;;;35.60;5.18;;;11.20;99.90;;;11.05;81.35;99212.28;5099253;28;20438;-82
2023/11/14 01:05:23;;;;;;;37.38;6.32;;;11.20;99.90;;;11.05;81.14;99206.97;5100929;28;20052;-82
2023/11/14 01:07:50;;;;;;;37.25;5.57;;;11.20;99.90;;;11.06;81.83;99215.78;5099372;28;20044;-82
2023/11/14 01:10:18;;;;;;;36.05;6.03;;;11.20;99.90;;;11.06;81.87;99237.13;5099080;28;20083;-82
2023/11/14 01:12:47;;;;;;;30.45;5.45;;;11.30;99.90;;;11.06;81.35;99229.09;5099476;28;20040;-81
2023/11/14 01:15:15;;;;;;;32.15;6.50;;;11.30;99.90;;;11.08;81.48;99206.47;5094113;28;20044;-81
2023/11/14 01:17:42;;;;;;;31.80;5.10;;;11.20;99.90;;;11.07;82.10;99201.38;5094680;28;20061;-82
2023/11/14 01:20:13;;;;;;;32.45;5.70;;;11.20;99.90;;;11.04;81.70;99202.69;5079712;28;20123;-82
2023/11/14 01:22:41;;;;;;;30.75;6.00;;;11.20;99.90;;;11.06;81.36;99199.75;5097129;28;20525;-81
2023/11/14 01:25:09;;;;;;;29.35;5.03;;;11.20;99.90;;;11.03;81.24;99195.75;5113348;28;20032;-82
2023/11/14 01:27:36;;;;;;;40.15;5.82;;;11.20;99.90;;;11.05;81.24;99195.47;5098378;28;20047;-82
2023/11/14 01:30:07;;;;;;;36.83;6.75;;;11.30;99.90;;;11.05;81.01;99184.81;5093888;28;20059;-82
2023/11/14 01:32:34;;;;;;;47.97;6.47;;;11.30;99.90;;;11.03;81.50;99190.41;5084048;28;20569;-82
2023/11/14 01:35:02;;;;;;;32.50;5.78;;;11.30;99.90;;;10.99;80.73;99197.28;5086718;28;20096;-82
2023/11/14 01:37:29;;;;;;;32.45;5.43;;;11.20;99.90;;;11.02;80.87;99196.75;5099912;28;20055;-82
2023/11/14 01:39:57;;;;;;;41.85;5.47;;;11.30;99.90;;;11.04;80.85;99201.88;5099575;28;20036;-81
2023/11/14 01:42:24;;;;;;;36.80;5.65;;;11.30;99.90;;;11.02;81.19;99193.28;5102772;28;20048;-82
2023/11/14 01:44:52;;;;;;;31.63;5.35;;;11.20;99.90;;;11.04;80.91;99205.34;5095833;28;20052;-82
2023/11/14 01:47:21;;;;;;;38.30;6.13;;;11.30;99.90;;;11.08;81.26;99205.69;5099151;28;20067;-82
2023/11/14 01:49:48;;;;;;;33.95;5.57;;;11.30;99.90;;;11.06;80.89;99208.56;5096448;28;20466;-81
2023/11/14 01:52:16;;;;;;;28.20;5.65;;;11.30;99.90;;;11.07;80.95;99214.72;5097731;28;20047;-81
2023/11/14 01:54:44;;;;;;;29.60;5.18;;;11.30;99.90;;;11.09;80.76;99200.09;5095066;28;20048;-82
2023/11/14 01:57:13;;;;;;;34.78;5.55;;;11.30;99.90;;;11.09;80.77;99204.63;5098956;28;20036;-82
2023/11/14 01:59:43;;;;;;;36.63;6.80;;;11.30;99.90;;;11.09;80.91;99202.75;5099115;28;20048;-82
2023/11/14 02:02:11;;;;;;;39.15;5.45;;;11.20;99.90;;;11.08;80.50;99217.16;5097860;28;20052;-81
2023/11/14 02:04:40;;;;;;;35.15;5.85;;;11.30;99.90;;;11.08;80.74;99203.00;5084377;28;20048;-81
2023/11/14 02:07:08;;;;;;;30.40;5.53;;;11.20;99.90;;;11.07;80.26;99236.06;5097806;28;20040;-81
2023/11/14 02:09:36;;;;;;;37.90;6.25;;;11.30;99.90;;;11.08;80.82;99233.16;5098065;28;20068;-81
2023/11/14 02:12:04;;;;;;;36.03;5.30;;;11.30;99.90;;;11.08;80.61;99221.69;5097237;28;20048;-82
2023/11/14 02:14:32;;;;;;;39.67;5.82;;;11.30;99.90;;;11.09;80.94;99236.63;5097971;28;20044;-81
2023/11/14 02:16:59;;;;;;;32.40;5.78;;;11.30;99.90;;;11.11;80.35;99239.06;5097776;28;20070;-81
2023/11/14 02:19:26;;;;;;;40.15;6.00;;;11.30;99.90;;;11.11;80.39;99231.84;5111313;28;20039;-81
2023/11/14 02:21:55;;;;;;;42.92;5.93;;;11.30;99.90;;;11.12;80.68;99238.00;5099968;28;20044;-82
2023/11/14 02:24:23;;;;;;;37.85;5.80;;;11.30;99.90;;;11.09;80.42;99244.63;5098847;28;20499;-81
2023/11/14 02:26:52;;;;;;;38.28;5.90;;;11.30;99.90;;;11.11;79.87;99225.72;5097117;28;20487;-81
2023/11/14 02:29:22;;;;;;;34.35;5.53;;;11.30;99.90;;;11.08;80.44;99229.69;5098586;28;20043;-81
2023/11/14 02:31:49;;;;;;;41.72;6.18;;;11.30;99.90;;;11.09;80.03;99247.31;5093010;28;20127;-81
2023/11/14 02:34:18;;;;;;;27.83;5.18;;;11.30;99.90;;;11.11;80.33;99247.06;5091531;28;20048;-81
2023/11/14 02:36:47;;;;;;;31.63;5.80;;;11.30;99.90;;;11.11;80.32;99258.53;5094549;28;20513;-82
2023/11/14 02:39:14;;;;;;;33.83;6.38;;;11.30;99.90;;;11.08;80.15;99257.19;5095937;28;20080;-82
2023/11/14 02:41:42;;;;;;;36.85;5.93;;;11.30;99.90;;;11.11;80.45;99266.53;5099423;28;20460;-82
2023/11/14 02:44:11;;;;;;;33.08;6.38;;;11.30;99.90;;;11.12;80.32;99270.81;5104373;28;20048;-82
2023/11/14 02:46:38;;;;;;;37.53;5.97;;;11.30;99.90;;;11.09;80.10;99256.13;5082629;28;20090;-81
2023/11/14 02:49:34;;;;;;;29.23;5.05;;;11.30;99.90;;;11.13;80.57;99266.31;5088798;28;20039;-81
2023/11/14 02:52:03;;;;;;;35.70;6.15;;;11.30;99.90;;;11.13;80.32;99268.97;5096155;28;20060;-81
2023/11/14 02:54:30;;;;;;;33.97;6.20;;;11.30;99.90;;;11.14;80.15;99273.25;5098257;28;20035;-81
2023/11/14 02:56:57;;;;;;;38.25;5.82;;;11.30;99.90;;;11.11;79.82;99261.19;5098211;28;20085;-81
2023/11/14 02:59:26;;;;;;;33.80;5.88;;;11.30;99.90;;;11.08;79.99;99261.72;5099430;28;20115;-81
2023/11/14 03:01:53;;;;;;;34.75;6.55;;;11.30;99.90;;;11.08;80.21;99264.38;5097360;28;20130;-81
2023/11/14 03:04:21;;;;;;;33.40;5.93;;;11.30;99.90;;;11.05;80.02;99273.66;5097221;28;20055;-81
2023/11/14 03:06:48;;;;;;;34.17;4.95;;;11.30;99.90;;;11.07;80.64;99266.22;5098386;28;20047;-81
2023/11/14 03:09:16;;;;;;;34.63;4.88;;;11.30;99.90;;;11.06;81.14;99266.47;5098108;28;20036;-82
2023/11/14 03:11:44;;;;;;;38.30;6.85;;;11.30;99.90;;;11.03;81.20;99256.28;5099165;28;20495;-81
2023/11/14 03:14:11;;;;;;;31.58;5.20;;;11.20;99.90;;;11.00;81.34;99276.25;5096203;28;20093;-81
2023/11/14 03:16:40;;;;;;;34.65;6.50;;;11.20;99.90;;;11.00;81.35;99270.13;5097491;28;20499;-81
2023/11/14 03:19:09;;;;;;;39.78;6.30;;;11.20;99.90;;;10.99;81.21;99271.16;5098815;28;20024;-81
2023/11/14 03:21:42;;;;;;;36.05;5.68;;;11.20;99.90;;;11.01;81.14;99256.53;5099120;28;20043;-81
2023/11/14 03:24:11;;;;;;;36.67;6.20;;;11.20;99.90;;;11.01;80.97;99277.06;5098802;28;20052;-81
2023/11/14 03:26:38;;;;;;;36.20;5.65;;;11.20;99.90;;;11.00;80.62;99280.78;5098028;28;20114;-82
2023/11/14 03:29:06;;;;;;;35.63;5.78;;;11.20;99.90;;;11.02;81.11;99266.13;5094191;28;20040;-82
2023/11/14 03:31:33;;;;;;;28.60;5.97;;;11.20;99.90;;;10.98;80.62;99281.03;5087078;28;20116;-81
2023/11/14 03:34:02;;;;;;;30.48;5.95;;;11.20;99.90;;;11.00;80.82;99280.78;5089132;28;20044;-82
2023/11/14 03:36:29;;;;;;;22.30;5.05;;;11.20;99.90;;;11.00;80.78;99270.13;5093446;28;20043;-81
2023/11/14 03:38:57;;;;;;;33.50;6.07;;;11.20;99.90;;;10.97;80.71;99273.25;5098531;28;20040;-82
2023/11/14 03:41:24;;;;;;;33.83;5.35;;;11.20;99.90;;;10.93;80.44;99288.13;5110664;28;20044;-81
2023/11/14 03:43:52;;;;;;;28.08;5.32;;;11.10;99.90;;;10.92;80.52;99291.84;5092137;28;20041;-81
2023/11/14 03:46:19;;;;;;;37.08;5.85;;;11.10;99.90;;;10.90;80.77;99285.97;5081567;28;20051;-82
2023/11/14 03:48:46;;;;;;;37.47;6.03;;;11.10;99.90;;;10.89;80.43;99289.69;5094597;28;20051;-81
2023/11/14 03:51:15;;;;;;;37.50;5.45;;;11.10;99.90;;;10.82;80.48;99290.63;5103416;28;20071;-81
2023/11/14 03:53:44;;;;;;;35.78;6.22;;;11.10;99.90;;;10.85;80.37;99299.22;5101034;28;20044;-81
2023/11/14 03:56:12;;;;;;;32.80;5.95;;;11.10;99.90;;;10.88;80.47;99302.19;5085743;28;20055;-81
2023/11/14 03:58:40;;;;;;;36.85;6.75;;;11.10;99.90;;;10.88;80.56;99288.03;5099256;28;20059;-81
2023/11/14 04:01:07;;;;;;;38.97;6.30;;;11.10;99.90;;;10.90;80.47;99294.78;5096346;28;20098;-82
2023/11/14 04:03:35;;;;;;;29.67;5.55;;;11.10;99.90;;;10.88;80.61;99304.03;5090434;28;20078;-81
2023/11/14 04:06:03;;;;;;;31.30;5.15;;;11.10;99.90;;;10.93;80.90;99280.13;5090281;28;20052;-81
2023/11/14 04:08:32;;;;;;;31.05;4.95;;;11.10;99.90;;;10.95;80.49;99292.19;5096518;28;20066;-81
2023/11/14 04:10:59;;;;;;;35.83;6.38;;;11.10;99.90;;;10.99;80.49;99300.50;5102009;28;20131;-81
2023/11/14 04:13:27;;;;;;;31.20;6.18;;;11.20;99.90;;;10.99;80.31;99289.84;5102633;28;20040;-81
2023/11/14 04:15:54;;;;;;;44.92;5.85;;;11.10;99.90;;;10.99;80.19;99303.19;5100854;28;20097;-81
2023/11/14 04:18:22;;;;;;;38.67;6.15;;;11.10;99.90;;;10.97;80.10;99292.72;5101974;28;20058;-81
2023/11/14 04:20:49;;;;;;;33.08;5.55;;;11.10;99.90;;;10.97;80.23;99292.72;5101587;28;20048;-81
2023/11/14 04:23:17;;;;;;;34.58;5.35;;;11.20;99.90;;;10.98;80.64;99297.03;5102720;28;20058;-81
2023/11/14 04:25:45;;;;;;;34.78;6.18;;;11.20;99.90;;;11.00;80.78;99300.25;5100823;28;20044;-81
2023/11/14 04:28:13;;;;;;;34.13;5.63;;;11.10;99.90;;;10.98;80.63;99297.03;5100698;28;20056;-81
2023/11/14 04:30:41;;;;;;;35.10;6.00;;;11.10;99.90;;;11.00;80.72;99292.25;5097957;28;20087;-81
2023/11/14 04:33:08;;;;;;;36.38;5.78;;;11.20;99.90;;;11.03;80.46;99301.66;5100506;28;20044;-81
2023/11/14 04:35:35;;;;;;;40.30;5.90;;;11.20;99.90;;;11.02;80.42;99316.81;5093732;28;20063;-81
2023/11/14 04:38:03;;;;;;;38.03;6.72;;;11.20;99.90;;;11.00;79.69;99292.25;5093440;28;20093;-81
2023/11/14 04:40:30;;;;;;;34.72;5.88;;;11.20;99.90;;;11.01;80.23;99303.72;5100558;28;20036;-81
2023/11/14 04:42:59;;;;;;;31.58;5.93;;;11.20;99.90;;;11.00;80.71;99304.78;5101208;28;20043;-81
2023/11/14 04:45:27;;;;;;;34.78;5.57;;;11.20;99.90;;;11.01;80.86;99293.88;5101950;28;20040;-82
2023/11/14 04:47:54;;;;;;;26.80;5.65;;;11.20;99.90;;;11.02;80.45;99279.47;5101067;28;20157;-81
2023/11/14 04:50:22;;;;;;;30.70;5.80;;;11.20;99.90;;;11.04;80.66;99288.06;5102746;28;20041;-81
2023/11/14 04:52:49;;;;;;;42.53;6.20;;;11.20;99.90;;;11.04;80.52;99279.25;5100933;28;20072;-82
2023/11/14 04:55:17;;;;;;;32.15;5.70;;;11.30;99.90;;;11.05;80.49;99294.19;5098201;28;20044;-81
2023/11/14 04:57:44;;;;;;;34.33;4.60;;;11.20;99.90;;;11.05;80.40;99289.66;5091318;28;20119;-82
2023/11/14 05:00:14;;;;;;;38.15;5.93;;;11.30;99.90;;;11.04;80.35;99303.25;5100685;28;20048;-81
2023/11/14 05:02:42;;;;;;;28.00;5.50;;;11.30;99.90;;;11.02;80.54;99290.16;5094401;28;20495;-81
2023/11/14 05:05:09;;;;;;;32.58;5.10;;;11.30;99.90;;;11.06;80.69;99285.13;5102268;28;20093;-81
2023/11/14 05:07:37;;;;;;;34.97;6.03;;;11.30;99.90;;;11.08;80.35;99291.06;5100439;28;20380;-81
2023/11/14 05:10:05;;;;;;;39.55;5.60;;;11.30;99.90;;;11.11;80.40;99287.06;5101726;28;20048;-81
2023/11/14 05:12:32;;;;;;;38.53;6.00;;;11.30;99.90;;;11.07;80.01;99276.06;5095801;28;20044;-81
2023/11/14 05:14:59;;;;;;;32.00;5.22;;;11.30;99.90;;;11.06;80.28;99274.47;5101605;28;20511;-81
2023/11/14 05:17:28;;;;;;;33.75;5.35;;;11.30;99.90;;;11.08;80.82;99291.06;5099211;28;20040;-81
2023/11/14 05:19:57;;;;;;;33.47;6.10;;;11.30;99.90;;;11.09;80.54;99298.81;5102110;28;20461;-81
2023/11/14 05:22:24;;;;;;;34.05;4.80;;;11.30;99.90;;;11.14;80.32;99290.06;5098525;28;20048;-81
2023/11/14 05:24:52;;;;;;;33.75;5.60;;;11.30;99.90;;;11.14;80.15;99294.59;5101845;28;20048;-81
2023/11/14 05:27:19;;;;;;;28.67;4.95;;;11.30;99.90;;;11.12;80.17;99297.50;5101929;28;20121;-81
2023/11/14 05:29:47;;;;;;;27.48;4.78;;;11.30;99.90;;;11.15;80.17;99304.22;5093390;28;20044;-81
2023/11/14 05:32:14;;;;;;;40.60;5.90;;;11.30;99.90;;;11.12;80.23;99305.50;5094789;28;20117;-81
2023/11/14 05:34:45;;;;;;;33.17;5.32;;;11.30;99.90;;;11.15;80.29;99330.91;5100898;28;20453;-81
2023/11/14 05:37:12;;;;;;;36.65;5.78;;;11.40;99.90;;;11.10;80.44;99328.97;5098620;28;20051;-81
2023/11/14 05:39:39;;;;;;;35.53;5.68;;;11.30;99.90;;;11.11;80.55;99333.25;5102016;28;20067;-81
2023/11/14 05:42:07;;;;;;;26.70;4.90;;;11.40;99.90;;;11.09;80.72;99330.81;5098297;28;20115;-81
2023/11/14 05:44:34;;;;;;;24.40;5.00;;;11.30;99.90;;;11.11;81.01;99325.25;5101279;28;20050;-81
2023/11/14 05:47:03;;;;;;;32.00;5.85;;;11.30;99.90;;;11.12;80.50;99328.72;5096420;28;20040;-82
2023/11/14 05:49:30;;;;;;;39.05;6.07;;;11.40;99.90;;;11.13;80.79;99336.50;5098949;28;20121;-82
2023/11/14 05:52:02;;;;;;;30.85;6.72;;;11.30;99.90;;;11.10;80.50;99320.97;5098968;28;20040;-83
2023/11/14 05:54:30;;;;;;;34.90;5.97;;;11.30;99.90;;;11.14;81.12;99310.63;5098915;28;20048;-81
2023/11/14 05:56:58;;;;;;;38.72;5.97;;;11.40;99.90;;;11.14;80.67;99339.97;5095487;28;20102;-83
2023/11/14 05:59:25;;;;;;;35.22;5.82;;;11.40;99.90;;;11.14;80.46;99342.63;5103885;28;20058;-83
2023/11/14 06:01:53;;;;;;;33.85;5.60;;;11.40;99.90;;;11.15;80.65;99337.06;5099493;28;20567;-83
2023/11/14 06:04:21;;;;;;;35.65;6.03;;;11.40;99.90;;;11.16;80.47;99330.66;5101851;28;20059;-83
2023/11/14 06:06:49;;;;;;;39.17;6.30;;;11.40;99.90;;;11.21;80.49;99329.94;5103410;28;20040;-82
2023/11/14 06:09:18;;;;;;;33.55;6.28;;;11.40;99.90;;;11.18;80.57;99339.25;5107328;28;20054;-82
2023/11/14 06:11:47;;;;;;;32.30;5.30;;;11.40;99.90;;;11.13;80.21;99333.03;5105698;28;20099;-82
2023/11/14 06:14:17;;;;;;;33.42;5.80;;;11.30;99.90;;;11.12;80.29;99326.84;5107088;28;20063;-82
2023/11/14 06:16:45;;;;;;;34.63;5.68;;;11.40;99.90;;;11.15;80.26;99347.72;5107101;28;20040;-82
2023/11/14 06:19:12;;;;;;;30.75;5.15;;;11.40;99.90;;;11.18;80.29;99357.94;5107167;28;20037;-81
2023/11/14 06:21:40;;;;;;;36.67;5.88;;;11.40;99.90;;;11.16;80.00;99345.88;5103259;28;20051;-84
2023/11/14 06:24:09;;;;;;;37.60;5.07;;;11.30;99.90;;;11.17;80.13;99347.47;5096453;28;20118;-84
2023/11/14 06:26:38;;;;;;;32.03;5.30;;;11.30;99.90;;;11.15;79.94;99353.06;5092373;28;20044;-83
2023/11/14 06:29:05;;;;;;;29.05;5.63;;;11.30;99.90;;;11.16;80.35;99364.53;5099923;28;20039;-83
2023/11/14 06:31:32;;;;;;;32.05;5.72;;;11.40;99.90;;;11.13;79.83;99362.38;5102380;28;20040;-83
2023/11/14 06:34:00;;;;;;;36.97;6.47;;;11.30;99.90;;;11.12;80.13;99356.19;5102638;28;20511;-82
2023/11/14 06:36:27;;;;;;;31.13;6.68;;;11.30;99.90;;;11.07;79.99;99350.78;5101694;28;20040;-82
2023/11/14 06:38:55;;;;;;;34.63;5.68;;;11.30;99.90;;;11.03;80.00;99336.34;5092713;28;20119;-83
2023/11/14 06:41:22;;;;;;;29.05;4.60;;;11.20;99.90;;;11.07;79.90;99342.78;5104082;28;20059;-88
2023/11/14 06:43:51;;;;;;;32.03;5.93;;;11.30;99.90;;;11.08;80.20;99339.09;5100826;28;20040;-82
2023/11/14 06:46:18;;;;;;;35.08;5.85;;;11.20;99.90;;;11.08;80.19;99347.91;5102852;28;20071;-82
2023/11/14 06:48:45;;;;;;;34.22;5.80;;;11.20;99.90;;;11.08;80.28;99368.44;5089142;28;20515;-82
2023/11/14 06:51:13;;;;;;;30.42;5.30;;;11.20;99.90;;;11.11;79.97;99359.94;5103195;28;20044;-82
2023/11/14 06:53:40;;;;;;;36.00;5.47;;;11.20;99.90;;;11.08;80.02;99358.56;5103892;28;20503;-82
2023/11/14 06:56:12;;;;;;;36.92;6.50;;;11.30;99.90;;;11.09;80.15;99343.38;5102961;28;20093;-82
2023/11/14 06:58:40;;;;;;;29.38;5.47;;;11.30;99.90;;;11.10;80.34;99355.66;5103969;28;20454;-82
2023/11/14 07:01:12;;;;;;;30.13;5.25;;;11.30;99.90;;;11.10;80.27;99355.66;5089447;28;20059;-82
2023/11/14 07:03:39;;;;;;;28.25;5.18;;;11.30;99.90;;;11.12;80.40;99352.72;5091496;28;20495;-82
2023/11/14 07:06:07;;;;;;;37.47;6.22;;;11.30;99.90;;;11.12;80.12;99366.88;5100682;28;20082;-82
2023/11/14 07:08:34;;;;;;;39.65;5.53;;;11.30;99.90;;;11.07;80.65;99374.81;5118160;28;20048;-82
2023/11/14 07:11:01;;;;;;;31.15;5.43;;;11.30;99.90;;;11.09;80.61;99375.38;5086892;28;20534;-82
2023/11/14 07:13:29;;;;;;;31.52;5.43;;;11.30;99.90;;;11.09;81.05;99386.06;5103482;28;20048;-82
2023/11/14 07:15:56;;;;;;;32.78;6.05;;;11.30;99.90;;;11.12;80.58;99390.09;5090715;28;20044;-82
2023/11/14 07:18:25;;;;;;;34.33;6.07;;;11.30;99.90;;;11.16;80.72;99386.69;5102684;28;20097;-83
2023/11/14 07:20:54;;;;;;;38.80;6.00;;;11.30;99.90;;;11.19;80.68;99401.44;5100296;28;20048;-82
2023/11/14 07:23:22;;;;;;;35.15;6.20;;;11.30;99.90;;;11.19;80.39;99401.44;5102604;28;20171;-82
2023/11/14 07:25:49;;;;;;;28.15;5.97;;;11.30;99.90;;;11.20;80.46;99403.84;5102784;28;20051;-82
2023/11/14 07:28:16;;;;;;;31.73;5.28;;;11.30;99.90;;;11.23;80.39;99413.25;5103008;28;20036;-82
2023/11/14 07:30:44;;;;;;;37.30;5.80;;;11.40;99.90;;;11.23;80.53;99422.06;5104896;28;20123;-82
2023/11/14 07:33:11;;;;;;;28.02;5.38;;;11.40;99.90;;;11.27;80.61;99425.03;5102994;28;20174;-82
2023/11/14 07:35:40;;;;;;;39.20;5.97;;;11.40;99.90;;;11.28;80.45;99424.00;5104861;28;20040;-82
2023/11/14 07:38:08;;;;;;;26.38;4.82;;;11.40;99.90;;;11.26;80.42;99424.22;5103286;28;20048;-82
2023/11/14 07:40:36;;;;;;;29.40;5.20;;;11.50;99.90;;;11.25;80.83;99438.63;5103642;28;20040;-82
2023/11/14 07:43:05;;;;;;;35.88;5.25;;;11.50;99.90;;;11.31;80.65;99424.31;5095635;28;20254;-82
2023/11/14 07:45:33;;;;;;;31.38;5.97;;;11.50;99.90;;;11.28;80.35;99421.34;5102815;28;20067;-82
2023/11/14 07:48:01;;;;;;;30.10;5.78;;;11.50;99.90;;;11.33;80.44;99408.06;5111269;28;20058;-83
2023/11/14 07:50:28;;;;;;;37.63;5.22;;;11.60;99.90;;;11.39;80.19;99403.63;5102026;28;20052;-82
2023/11/14 07:52:58;;;;;;;42.75;6.00;;;11.60;99.90;;;11.38;80.13;99418.84;5103211;28;21340;-82
2023/11/14 07:55:25;;;;;;;37.65;5.80;;;11.60;99.90;;;11.39;80.03;99406.28;5091944;28;20051;-82
2023/11/14 07:57:52;;;;;;;23.88;4.85;;;11.60;99.90;;;11.38;79.99;99400.16;5102913;28;20063;-82
2023/11/14 08:00:21;;;;;;;29.20;5.45;;;11.60;99.90;;;11.37;79.94;99385.19;5103398;28;20043;-82
2023/11/14 08:02:49;;;;;;;34.15;5.53;;;11.60;99.90;;;11.41;80.11;99391.63;5104360;28;20044;-82
2023/11/14 08:05:17;;;;;;;38.95;6.07;;;11.70;99.90;;;11.44;80.33;99387.69;5101086;28;20426;-82
2023/11/14 08:07:45;;;;;;;32.88;4.93;;;11.70;99.90;;;11.43;80.44;99396.75;5101266;28;20102;-82
2023/11/14 08:10:16;;;;;;;38.83;5.65;;;11.70;99.90;;;11.46;80.56;99391.72;5104565;28;20039;-82
2023/11/14 08:12:43;;;;;;;;;;;11.70;99.90;;;11.46;80.00;99397.06;5105718;28;20043;-83
2023/11/14 08:15:11;;;;;;;33.85;5.45;;;11.70;99.90;;;11.49;80.71;99395.78;5098810;28;19927;-82
2023/11/14 08:17:40;;;;;;;29.30;5.28;;;11.70;99.90;;;11.46;80.27;99397.06;5102693;28;20071;-83
2023/11/14 08:20:11;;;;;;;35.13;4.97;;;11.70;99.90;;;11.49;80.37;99407.25;5095233;28;20049;-82
2023/11/14 08:22:39;;;;;;;32.38;5.55;;;11.70;99.90;;;11.52;80.68;99400.63;5088268;28;20051;-82
2023/11/14 08:25:08;;;;;;;34.60;5.43;;;11.70;99.90;;;11.49;80.48;99407.25;5105269;28;20032;-82
2023/11/14 08:27:45;;;;;;;39.75;5.95;;;11.70;99.90;;;11.55;80.17;99410.81;5104828;28;20050;-82
2023/11/14 08:30:14;;;;;;;32.08;5.28;;;11.70;99.90;;;11.56;80.03;99423.91;5106403;28;20104;-82
2023/11/14 08:32:41;;;;;;;32.25;5.93;;;11.80;99.90;;;11.60;80.53;99413.56;5105737;28;20607;-82
2023/11/14 08:35:12;;;;;;;25.50;5.05;;;11.80;99.90;;;11.63;80.15;99418.44;5105836;28;20032;-82
2023/11/14 08:37:39;;;;;;;33.65;5.60;;;11.90;99.90;;;11.64;80.36;99414.69;5108110;28;20048;-82
2023/11/14 08:40:09;;;;;;;31.27;5.90;;;11.90;99.90;;;11.66;80.08;99428.59;5109031;28;20040;-82
2023/11/14 08:42:39;;;;;;;29.27;5.32;;;11.90;99.90;;;11.65;79.98;99418.16;5104419;28;20107;-82
2023/11/14 08:45:08;;;;;;;34.03;5.82;;;11.90;99.90;;;11.64;80.03;99409.34;5110043;28;20089;-82
2023/11/14 08:47:35;;;;;;;33.78;5.03;;;11.90;99.90;;;11.64;80.24;99414.69;5093711;28;20082;-82
2023/11/14 08:50:04;;;;;;;32.42;5.45;;;11.90;99.90;;;11.67;80.54;99410.75;5094331;28;20036;-82
2023/11/14 08:52:31;;;;;;;27.23;5.28;;;11.90;99.90;;;11.64;80.23;99413.88;5104034;28;20044;-82
2023/11/14 08:54:58;;;;;;;32.85;5.25;;;11.90;99.90;;;11.67;80.32;99413.41;5110221;28;20036;-82
2023/11/14 08:57:26;;;;;;;33.70;5.97;;;11.90;99.90;;;11.67;80.38;99410.75;5097408;28;20097;-84
2023/11/14 08:59:56;;;;;;;34.20;5.35;;;11.90;99.90;;;11.65;80.10;99410.16;5096538;28;20544;-83
2023/11/14 09:02:24;;;;;;;35.85;5.65;;;11.90;99.90;;;11.66;80.55;99415.25;5097414;28;20499;-84
2023/11/14 09:04:52;;;;;;;32.22;5.45;;;11.90;99.90;;;11.65;80.45;99427.00;5102610;28;20104;-84
2023/11/14 09:07:19;;;;;;;39.25;6.53;;;11.90;99.90;;;11.68;80.84;99415.84;5108023;28;20117;-84
2023/11/14 09:09:49;;;;;;;34.92;4.93;;;11.90;99.90;;;11.72;80.69;99410.81;5110077;28;20051;-86
2023/11/14 09:12:19;;;;;;;30.42;5.35;;;11.90;99.90;;;11.75;80.64;99419.13;5109901;28;20101;-83
2023/11/14 09:14:47;;;;;;;29.27;5.13;;;12.00;99.90;;;11.80;80.47;99419.19;5111123;28;20127;-83
2023/11/14 09:17:16;;;;;;;31.35;4.80;;;12.00;99.90;;;11.80;80.14;99423.72;5110119;28;20086;-83
2023/11/14 09:19:46;;;;;;;26.60;5.13;;;12.00;99.90;;;11.81;79.74;99418.16;5104837;28;20259;-85
2023/11/14 09:22:13;;;;;;;25.67;5.22;;;12.00;99.90;;;11.79;79.95;99412.25;5098867;28;20048;-83
2023/11/14 09:24:41;;;;;;;31.88;4.90;;;12.00;99.90;;;11.80;79.83;99416.53;5094439;28;20109;-84
2023/11/14 09:27:08;;;;;;;30.90;4.90;;;12.10;99.90;;;11.83;79.71;99418.75;5111376;28;20040;-83
2023/11/14 09:29:36;;;;;;;29.55;4.43;;;12.10;99.90;;;11.89;79.88;99411.63;5107321;28;20044;-83
2023/11/14 09:32:03;;;;;;;25.50;4.28;;;12.10;99.90;;;11.90;79.69;99413.22;5105064;28;20048;-83
2023/11/14 09:34:32;;;;;;;28.73;5.35;;;12.10;99.90;;;11.91;80.05;99408.69;5106992;28;20101;-83
2023/11/14 09:37:02;;;;;;;28.10;5.35;;;12.20;99.90;;;11.95;79.97;99409.81;5100161;28;20048;-83
2023/11/14 09:39:29;;;;;;;30.77;5.28;;;12.30;99.90;;;12.00;80.81;99397.34;5101132;28;20040;-83
2023/11/14 09:41:58;;;;;;;25.35;5.18;;;12.30;99.90;;;12.05;79.90;99415.31;5092221;28;20036;-83
2023/11/14 09:44:27;;;;;;;30.08;4.70;;;12.30;99.90;;;12.09;80.34;99408.41;5100499;28;20051;-83
2023/11/14 09:46:56;;;;;;;28.60;4.82;;;12.40;99.90;;;12.07;79.89;99402.53;5096448;28;20051;-83
2023/11/14 09:49:23;;;;;;;23.50;4.68;;;12.40;99.90;;;12.09;79.73;99411.88;5089272;28;20054;-83
2023/11/14 09:51:53;;;;;;;25.13;4.28;;;12.40;99.90;;;12.16;79.96;99403.72;5102102;28;20059;-83
2023/11/14 09:54:20;;;;;;;27.00;5.07;;;12.40;99.90;;;12.19;79.84;99413.09;5101709;28;20047;-83
2023/11/14 09:56:48;;;;;;;27.45;5.00;;;12.50;99.90;;;12.23;79.79;99416.88;5101705;28;20032;-83
2023/11/14 09:59:16;;;;;;;23.13;4.90;;;12.50;99.90;;;12.28;79.58;99417.75;5099802;28;20070;-83
2023/11/14 10:01:44;;;;;;;30.50;5.65;;;12.50;99.90;;;12.27;79.39;99421.50;5099794;28;20407;-83
2023/11/14 10:04:12;;;;;;;29.85;4.47;;;12.60;99.90;;;12.29;79.34;99422.03;5101194;28;20048;-83
2023/11/14 10:06:41;;;;;;;31.90;5.68;;;12.60;99.90;;;12.30;78.80;99423.69;5100181;28;20479;-83
2023/11/14 10:09:14;;;;;;;24.73;5.40;;;12.60;99.90;;;12.32;79.29;99426.09;5099827;28;20036;-83
2023/11/14 10:11:43;;;;;;;23.02;4.43;;;12.60;99.90;;;12.31;78.32;99430.63;5099854;28;20044;-83
2023/11/14 10:14:10;;;;;;;25.25;5.22;;;12.60;99.90;;;12.31;78.37;99425.28;5099841;28;20093;-83
2023/11/14 10:16:37;;;;;;;33.45;5.32;;;12.60;99.90;;;12.26;77.70;99437.78;5098370;28;20123;-83